Time;durP1;ratioP1;P1;durP2;ratioP2;P2;SDS_P1;SDS_P2;PMS_P1;PMS_P2;Temp;Humidity;BMP_temperature;BMP_pressure;BME280_temperature;BME280_humidity;BME280_pressure;Samples;Min_cycle;Max_cycle;Signal;HPM_P1;HPM_P2
2022/10/09 00:01:02;;;;;;;11.07;6.53;;;16.20;99.90;;;;;;5032565;28;20535;-77
2022/10/09 00:03:28;;;;;;;14.85;7.60;;;16.10;99.90;;;;;;5031813;28;20032;-75
2022/10/09 00:05:53;;;;;;;11.82;7.78;;;16.10;99.90;;;;;;5031934;28;20028;-75
2022/10/09 00:08:19;;;;;;;12.60;8.00;;;16.10;99.90;;;;;;5036105;28;20087;-75
2022/10/09 00:10:45;;;;;;;13.00;7.60;;;16.10;99.90;;;;;;5029646;28;20361;-75
2022/10/09 00:13:11;;;;;;;12.00;6.40;;;16.20;99.90;;;;;;5036715;28;20084;-75
2022/10/09 00:15:38;;;;;;;10.77;6.72;;;16.20;99.90;;;;;;5028362;28;20087;-76
2022/10/09 00:18:05;;;;;;;10.45;6.35;;;16.20;99.90;;;;;;5029533;28;20029;-75
2022/10/09 00:20:35;;;;;;;12.20;6.70;;;16.20;99.90;;;;;;5031676;28;20041;-75
2022/10/09 00:23:01;;;;;;;12.13;6.63;;;16.40;99.90;;;;;;5035428;28;20478;-77
2022/10/09 00:25:27;;;;;;;13.70;7.28;;;16.40;99.90;;;;;;5026368;28;20030;-75
2022/10/09 00:27:52;;;;;;;13.13;7.25;;;16.40;99.90;;;;;;5028706;28;20079;-75
2022/10/09 00:30:18;;;;;;;13.85;7.47;;;16.30;99.90;;;;;;5031032;28;20028;-77
2022/10/09 00:32:43;;;;;;;11.32;7.32;;;16.30;99.90;;;;;;5030067;28;20457;-75
2022/10/09 00:35:09;;;;;;;10.40;7.30;;;16.30;99.90;;;;;;5030608;28;20036;-76
2022/10/09 00:37:35;;;;;;;11.13;6.15;;;16.30;99.90;;;;;;5029661;28;20021;-76
2022/10/09 00:40:00;;;;;;;9.90;5.57;;;16.20;99.90;;;;;;5028279;28;20033;-75
2022/10/09 00:42:26;;;;;;;8.52;4.70;;;16.20;99.90;;;;;;5034019;28;20032;-76
2022/10/09 00:45:01;;;;;;;10.20;5.88;;;16.10;99.90;;;;;;5033672;28;20040;-76
2022/10/09 00:47:41;;;;;;;9.73;5.53;;;16.20;99.90;;;;;;5030436;28;20025;-75
2022/10/09 00:50:18;;;;;;;14.38;7.10;;;16.10;99.90;;;;;;5029662;28;20520;-75
2022/10/09 00:52:45;;;;;;;10.25;7.82;;;16.00;99.90;;;;;;5026597;28;20636;-76
2022/10/09 00:55:13;;;;;;;14.13;7.38;;;16.00;99.90;;;;;;5030752;28;20032;-76
2022/10/09 00:57:39;;;;;;;12.77;7.55;;;16.00;99.90;;;;;;5034440;28;20101;-75
2022/10/09 01:00:08;;;;;;;10.57;7.10;;;15.90;99.90;;;;;;5028090;28;20033;-76
2022/10/09 01:02:34;;;;;;;16.15;7.43;;;15.90;99.90;;;;;;5029924;28;20041;-77
2022/10/09 01:04:59;;;;;;;13.00;6.78;;;16.00;99.90;;;;;;5033040;28;20028;-76
2022/10/09 01:07:28;;;;;;;10.98;6.88;;;16.00;99.90;;;;;;5030988;28;20030;-76
2022/10/09 01:10:15;;;;;;;11.50;7.28;;;16.00;99.90;;;;;;5033297;28;20503;-76
2022/10/09 01:12:47;;;;;;;15.70;7.07;;;16.10;99.90;;;;;;5029368;28;20403;-76
2022/10/09 01:15:17;;;;;;;14.60;7.10;;;16.10;99.90;;;;;;5034034;28;20057;-75
2022/10/09 01:17:42;;;;;;;13.95;7.85;;;16.30;99.90;;;;;;5039463;28;20030;-76
2022/10/09 01:20:26;;;;;;;11.35;6.43;;;16.40;99.90;;;;;;5023934;28;21479;-75
2022/10/09 01:23:19;;;;;;;9.70;6.20;;;16.30;99.90;;;;;;5027033;28;20488;-76
2022/10/09 01:26:04;;;;;;;11.90;6.35;;;16.30;99.90;;;;;;5030128;28;20091;-75
2022/10/09 01:28:30;;;;;;;11.75;5.88;;;16.30;99.90;;;;;;5035186;28;20041;-75
2022/10/09 01:31:02;;;;;;;9.80;5.45;;;16.20;99.90;;;;;;5038182;28;20048;-75
2022/10/09 01:33:30;;;;;;;11.05;6.75;;;16.20;99.90;;;;;;5032241;28;20457;-75
2022/10/09 01:35:57;;;;;;;10.82;6.60;;;16.30;99.90;;;;;;5035261;28;20026;-76
2022/10/09 01:38:23;;;;;;;12.75;6.70;;;16.30;99.90;;;;;;5039309;28;20040;-76
2022/10/09 01:40:52;;;;;;;10.13;6.78;;;16.20;99.90;;;;;;5030267;28;20033;-76
2022/10/09 01:43:18;;;;;;;10.02;6.80;;;16.20;99.90;;;;;;5034717;28;20048;-77
2022/10/09 01:45:46;;;;;;;12.35;6.90;;;16.10;99.90;;;;;;5038236;28;20075;-76
2022/10/09 01:48:21;;;;;;;15.20;8.15;;;16.10;99.90;;;;;;5040843;28;20045;-75
2022/10/09 01:50:53;;;;;;;11.45;7.53;;;16.00;99.90;;;;;;5030959;28;20526;-75
2022/10/09 01:53:22;;;;;;;10.50;6.50;;;16.00;99.90;;;;;;5030814;28;20022;-75
2022/10/09 01:55:57;;;;;;;11.43;6.65;;;16.00;99.90;;;;;;5032882;28;20024;-75
2022/10/09 01:58:37;;;;;;;13.38;6.63;;;16.00;99.90;;;;;;5032766;28;20033;-75
2022/10/09 02:01:07;;;;;;;11.40;5.75;;;15.90;99.90;;;;;;5034236;28;20048;-76
2022/10/09 02:03:37;;;;;;;10.35;6.40;;;15.90;99.90;;;;;;5038528;28;20144;-75
2022/10/09 02:06:06;;;;;;;9.45;5.90;;;15.80;99.90;;;;;;5029947;28;20108;-75
2022/10/09 02:08:35;;;;;;;12.02;7.15;;;15.80;99.90;;;;;;5033566;28;20120;-77
2022/10/09 02:11:02;;;;;;;10.55;7.28;;;15.70;99.90;;;;;;5031519;28;20038;-76
2022/10/09 02:13:30;;;;;;;12.30;7.03;;;15.80;99.90;;;;;;5031730;28;20096;-75
2022/10/09 02:16:17;;;;;;;10.40;6.50;;;15.80;99.90;;;;;;5036865;28;20048;-75
2022/10/09 02:18:59;;;;;;;12.32;7.18;;;15.80;99.90;;;;;;5028641;28;20025;-75
2022/10/09 02:21:54;;;;;;;13.85;7.82;;;15.90;99.90;;;;;;5031557;28;20361;-77
2022/10/09 02:24:21;;;;;;;11.00;7.85;;;16.00;99.90;;;;;;5031254;28;20098;-75
2022/10/09 02:26:48;;;;;;;14.32;8.02;;;16.00;99.90;;;;;;5030015;28;20399;-76
2022/10/09 02:29:14;;;;;;;12.00;7.32;;;16.10;99.90;;;;;;5030290;28;20026;-76
2022/10/09 02:31:42;;;;;;;12.63;7.65;;;16.10;99.90;;;;;;5031742;28;20555;-75
2022/10/09 02:34:11;;;;;;;12.25;6.85;;;16.00;99.90;;;;;;5031015;28;20055;-75
2022/10/09 02:36:38;;;;;;;12.30;6.35;;;15.90;99.90;;;;;;5031550;28;20037;-75
2022/10/09 02:39:06;;;;;;;9.85;6.88;;;15.90;99.90;;;;;;5033188;28;20124;-75
2022/10/09 02:41:32;;;;;;;12.02;7.00;;;16.00;99.90;;;;;;5035704;28;20032;-77
2022/10/09 02:43:58;;;;;;;11.00;6.15;;;15.90;99.90;;;;;;5039598;28;20025;-75
2022/10/09 02:46:24;;;;;;;11.32;6.95;;;15.90;99.90;;;;;;5033609;28;20034;-76
2022/10/09 02:48:50;;;;;;;13.77;7.10;;;15.90;99.90;;;;;;5035554;28;20079;-76
2022/10/09 02:51:16;;;;;;;11.02;6.07;;;15.90;99.90;;;;;;5038102;28;20029;-75
2022/10/09 02:53:42;;;;;;;12.07;6.70;;;15.90;99.90;;;;;;5036912;28;20029;-76
2022/10/09 02:56:08;;;;;;;12.43;6.88;;;15.90;99.90;;;;;;5037351;28;20549;-75
2022/10/09 02:58:34;;;;;;;13.32;6.88;;;15.90;99.90;;;;;;5033191;28;20033;-75
2022/10/09 03:01:01;;;;;;;11.80;6.32;;;15.80;99.90;;;;;;5030657;28;20028;-74
2022/10/09 03:03:26;;;;;;;9.13;5.65;;;15.90;99.90;;;;;;5029089;28;20476;-77
2022/10/09 03:06:01;;;;;;;11.90;6.47;;;15.90;99.90;;;;;;5031038;28;20025;-76
2022/10/09 03:08:27;;;;;;;11.98;7.25;;;15.80;99.90;;;;;;5023663;28;20030;-75
2022/10/09 03:10:52;;;;;;;11.85;6.82;;;15.80;99.90;;;;;;5024100;28;20030;-75
2022/10/09 03:13:18;;;;;;;11.23;6.20;;;15.80;99.90;;;;;;5023480;28;20147;-75
2022/10/09 03:15:43;;;;;;;9.23;6.43;;;15.80;99.90;;;;;;5032955;28;20033;-75
2022/10/09 03:18:09;;;;;;;12.80;6.57;;;15.80;99.90;;;;;;5026655;28;20029;-75
2022/10/09 03:20:36;;;;;;;14.07;6.45;;;15.70;99.90;;;;;;5023593;28;20068;-75
2022/10/09 03:23:01;;;;;;;10.25;6.50;;;15.80;99.90;;;;;;5022225;28;20505;-75
2022/10/09 03:25:27;;;;;;;11.75;6.50;;;15.80;99.90;;;;;;5026928;28;20033;-75
2022/10/09 03:27:52;;;;;;;11.05;6.75;;;15.70;99.90;;;;;;5026427;28;20029;-75
2022/10/09 03:30:18;;;;;;;11.25;6.57;;;15.80;99.90;;;;;;5020669;28;20037;-75
2022/10/09 03:32:44;;;;;;;11.73;7.13;;;15.80;99.90;;;;;;5028710;28;20116;-75
2022/10/09 03:35:09;;;;;;;11.23;7.05;;;15.70;99.90;;;;;;5039799;28;20112;-75
2022/10/09 03:37:35;;;;;;;12.68;6.80;;;15.70;99.90;;;;;;5024022;28;20048;-74
2022/10/09 03:40:01;;;;;;;13.07;7.53;;;15.70;99.90;;;;;;5026175;28;20529;-77
2022/10/09 03:42:26;;;;;;;11.13;6.68;;;16.00;99.90;;;;;;5031117;28;20028;-75
2022/10/09 03:44:52;;;;;;;10.52;6.72;;;16.10;99.90;;;;;;5041131;28;20025;-75
2022/10/09 03:47:18;;;;;;;13.85;7.55;;;16.10;99.90;;;;;;5028417;28;20033;-75
2022/10/09 03:49:43;;;;;;;9.23;6.13;;;15.90;99.90;;;;;;5040205;28;20367;-75
2022/10/09 03:52:09;;;;;;;13.15;6.65;;;15.80;99.90;;;;;;5032595;28;20044;-75
2022/10/09 03:54:35;;;;;;;13.60;7.75;;;15.80;99.90;;;;;;5028959;28;20040;-75
2022/10/09 03:57:00;;;;;;;9.65;6.80;;;15.70;99.90;;;;;;5029461;28;20033;-74
2022/10/09 03:59:26;;;;;;;8.45;6.03;;;15.70;99.90;;;;;;5022319;28;20045;-75
2022/10/09 04:01:51;;;;;;;11.15;5.95;;;15.70;99.90;;;;;;5028231;28;20032;-75
2022/10/09 04:04:17;;;;;;;9.25;6.18;;;15.70;99.90;;;;;;5023175;28;20041;-75
2022/10/09 04:06:43;;;;;;;9.98;6.38;;;15.50;99.90;;;;;;5027831;28;20494;-75
2022/10/09 04:09:08;;;;;;;10.88;7.03;;;15.50;99.90;;;;;;5031862;28;20079;-74
2022/10/09 04:11:34;;;;;;;11.32;6.50;;;15.50;99.90;;;;;;5019737;28;20040;-77
2022/10/09 04:14:00;;;;;;;10.07;6.50;;;15.40;99.90;;;;;;5023160;28;20120;-77
2022/10/09 04:16:26;;;;;;;13.82;7.47;;;15.50;99.90;;;;;;5024906;28;20017;-78
2022/10/09 04:18:52;;;;;;;12.65;8.05;;;15.60;99.90;;;;;;5028280;28;20049;-77
2022/10/09 04:21:17;;;;;;;13.80;8.27;;;15.70;99.90;;;;;;5020888;28;20428;-75
2022/10/09 04:23:43;;;;;;;12.15;7.88;;;15.70;99.90;;;;;;5025970;28;20101;-75
2022/10/09 04:26:11;;;;;;;16.02;8.00;;;15.70;99.90;;;;;;5023085;28;20043;-75
2022/10/09 04:28:36;;;;;;;10.63;7.75;;;15.70;99.90;;;;;;5026408;28;20041;-77
2022/10/09 04:31:03;;;;;;;11.90;8.40;;;15.70;99.90;;;;;;5022599;28;20088;-75
2022/10/09 04:33:29;;;;;;;13.43;8.10;;;15.70;99.90;;;;;;5024846;28;20041;-75
2022/10/09 04:35:55;;;;;;;10.63;6.60;;;15.80;99.90;;;;;;5020622;28;20109;-75
2022/10/09 04:38:23;;;;;;;9.85;5.82;;;15.70;99.90;;;;;;5021407;28;20026;-75
2022/10/09 04:41:03;;;;;;;10.27;6.18;;;15.60;99.90;;;;;;5022951;28;20652;-75
2022/10/09 04:43:29;;;;;;;10.52;6.53;;;15.40;99.90;;;;;;5019389;28;20106;-74
2022/10/09 04:45:55;;;;;;;11.00;6.03;;;15.50;99.90;;;;;;5020098;28;20171;-77
2022/10/09 04:48:21;;;;;;;11.65;6.07;;;15.40;99.90;;;;;;5033632;28;20036;-75
2022/10/09 04:50:47;;;;;;;12.65;6.30;;;15.40;99.90;;;;;;5020223;28;20941;-76
2022/10/09 04:53:13;;;;;;;9.57;6.43;;;15.40;99.90;;;;;;5025752;28;20037;-75
2022/10/09 04:55:40;;;;;;;12.05;6.90;;;15.40;99.90;;;;;;5030231;28;20112;-75
2022/10/09 04:58:07;;;;;;;10.85;6.13;;;15.40;99.90;;;;;;5022546;28;20021;-75
2022/10/09 05:00:33;;;;;;;10.52;6.00;;;15.40;99.90;;;;;;5023795;28;20179;-75
2022/10/09 05:02:58;;;;;;;11.45;5.82;;;15.40;99.90;;;;;;5026079;28;20034;-75
2022/10/09 05:05:24;;;;;;;12.63;6.22;;;15.30;99.90;;;;;;5026368;28;20037;-76
2022/10/09 05:07:50;;;;;;;11.65;6.40;;;15.20;99.90;;;;;;5024537;28;20033;-76
2022/10/09 05:10:16;;;;;;;11.93;7.53;;;15.20;99.90;;;;;;5027357;28;20071;-75
2022/10/09 05:12:42;;;;;;;12.20;6.47;;;15.30;99.90;;;;;;5030226;28;20128;-75
2022/10/09 05:15:08;;;;;;;8.07;5.97;;;15.20;99.90;;;;;;5027593;28;20029;-75
2022/10/09 05:17:33;;;;;;;9.95;6.00;;;15.10;99.90;;;;;;5032450;28;20510;-75
2022/10/09 05:19:59;;;;;;;16.25;7.13;;;15.20;99.90;;;;;;5023835;28;20057;-76
2022/10/09 05:22:25;;;;;;;13.73;5.88;;;15.30;99.90;;;;;;5024749;28;20034;-75
2022/10/09 05:24:50;;;;;;;10.18;6.68;;;15.20;99.90;;;;;;5025497;28;20033;-75
2022/10/09 05:27:16;;;;;;;14.15;7.03;;;15.20;99.90;;;;;;5025976;28;22290;-75
2022/10/09 05:29:42;;;;;;;11.32;7.13;;;15.30;99.90;;;;;;5025381;28;20159;-75
2022/10/09 05:32:07;;;;;;;12.07;6.30;;;15.30;99.90;;;;;;5024813;28;20325;-75
2022/10/09 05:34:34;;;;;;;11.52;6.43;;;15.40;99.90;;;;;;5024928;28;23023;-75
2022/10/09 05:36:59;;;;;;;11.65;6.60;;;15.40;99.90;;;;;;5031202;28;20036;-75
2022/10/09 05:39:25;;;;;;;10.98;6.35;;;15.40;99.90;;;;;;5027119;28;20033;-75
2022/10/09 05:41:50;;;;;;;9.65;5.78;;;15.40;99.90;;;;;;5025509;28;20056;-75
2022/10/09 05:44:16;;;;;;;11.52;7.10;;;15.40;99.90;;;;;;5029030;28;20052;-75
2022/10/09 05:46:42;;;;;;;12.65;5.80;;;15.40;99.90;;;;;;5030653;28;20033;-75
2022/10/09 05:49:10;;;;;;;12.23;7.13;;;15.30;99.90;;;;;;5033723;28;20029;-76
2022/10/09 05:51:38;;;;;;;9.13;5.95;;;15.30;99.90;;;;;;5032691;28;20044;-76
2022/10/09 05:54:05;;;;;;;12.82;6.93;;;15.30;99.90;;;;;;5025548;28;20048;-75
2022/10/09 05:56:36;;;;;;;11.48;6.28;;;15.30;99.90;;;;;;5030160;28;20545;-75
2022/10/09 05:59:14;;;;;;;10.57;5.53;;;15.30;99.90;;;;;;5029078;28;20045;-75
2022/10/09 06:01:42;;;;;;;11.40;5.88;;;15.30;99.90;;;;;;5024876;28;20056;-75
2022/10/09 06:04:13;;;;;;;12.85;6.45;;;15.30;99.90;;;;;;5027547;28;20045;-76
2022/10/09 06:06:39;;;;;;;14.05;7.32;;;15.30;99.90;;;;;;5031111;28;20453;-73
2022/10/09 06:09:07;;;;;;;12.30;7.53;;;15.40;99.90;;;;;;5025812;28;20037;-75
2022/10/09 06:11:35;;;;;;;10.05;7.03;;;15.40;99.90;;;;;;5035467;28;20059;-74
2022/10/09 06:14:04;;;;;;;11.75;7.10;;;15.50;99.90;;;;;;5024799;28;20132;-77
2022/10/09 06:16:32;;;;;;;10.48;7.38;;;15.50;99.90;;;;;;5027853;28;20584;-79
2022/10/09 06:18:58;;;;;;;8.45;5.80;;;15.50;99.90;;;;;;5028306;28;20098;-77
2022/10/09 06:21:25;;;;;;;10.18;6.82;;;15.50;99.90;;;;;;5027519;28;20043;-77
2022/10/09 06:23:52;;;;;;;11.93;6.05;;;15.60;99.90;;;;;;5027089;28;20020;-77
2022/10/09 06:26:19;;;;;;;11.80;7.00;;;15.60;99.90;;;;;;5027492;28;20465;-78
2022/10/09 06:28:44;;;;;;;13.10;6.43;;;15.50;99.90;;;;;;5031679;28;20060;-81
2022/10/09 06:31:11;;;;;;;11.05;6.78;;;15.60;99.90;;;;;;5023797;28;20104;-76
2022/10/09 06:33:39;;;;;;;11.07;7.35;;;15.60;99.90;;;;;;5031468;28;20025;-76
2022/10/09 06:36:11;;;;;;;11.02;6.60;;;15.60;99.90;;;;;;5024362;28;20043;-77
2022/10/09 06:38:38;;;;;;;13.77;7.30;;;15.60;99.90;;;;;;5026265;28;20565;-77
2022/10/09 06:41:06;;;;;;;9.52;6.35;;;15.70;99.90;;;;;;5041945;28;20047;-76
2022/10/09 06:43:32;;;;;;;10.25;6.47;;;15.70;99.90;;;;;;5039835;28;20488;-75
2022/10/09 06:46:03;;;;;;;11.80;6.60;;;15.70;99.90;;;;;;5029604;28;20033;-77
2022/10/09 06:48:30;;;;;;;8.63;5.55;;;15.70;99.90;;;;;;5047080;28;20136;-76
2022/10/09 06:51:03;;;;;;;8.25;5.53;;;15.70;99.90;;;;;;5046496;28;20082;-77
2022/10/09 06:53:29;;;;;;;10.82;5.20;;;15.80;99.90;;;;;;5047748;28;20051;-76
2022/10/09 06:55:57;;;;;;;9.30;6.63;;;15.80;99.90;;;;;;5035202;28;20038;-76
2022/10/09 06:58:23;;;;;;;9.43;6.03;;;15.80;99.90;;;;;;5029641;28;20029;-77
2022/10/09 07:00:49;;;;;;;13.05;6.80;;;15.80;99.90;;;;;;5026809;28;20099;-76
2022/10/09 07:03:14;;;;;;;9.52;5.65;;;15.90;99.90;;;;;;5028929;28;20021;-78
2022/10/09 07:05:40;;;;;;;7.93;5.70;;;15.90;99.90;;;;;;5021276;28;20476;-76
2022/10/09 07:08:06;;;;;;;10.02;6.07;;;15.90;99.90;;;;;;5035973;28;20464;-76
2022/10/09 07:10:31;;;;;;;9.30;5.82;;;15.90;99.90;;;;;;5030140;28;20067;-76
2022/10/09 07:12:57;;;;;;;8.95;5.38;;;15.90;99.90;;;;;;5021289;28;20045;-77
2022/10/09 07:15:23;;;;;;;10.55;6.40;;;15.90;99.90;;;;;;5021297;28;20077;-75
2022/10/09 07:17:48;;;;;;;9.98;5.28;;;15.90;99.90;;;;;;5020393;28;20052;-74
2022/10/09 07:20:14;;;;;;;8.82;5.70;;;15.90;99.90;;;;;;5023780;28;20036;-75
2022/10/09 07:22:40;;;;;;;14.45;7.00;;;15.90;99.90;;;;;;5025080;28;20025;-74
2022/10/09 07:25:06;;;;;;;9.05;6.00;;;15.90;99.90;;;;;;5024907;28;20057;-74
2022/10/09 07:27:32;;;;;;;9.55;5.35;;;15.90;99.90;;;;;;5025658;28;20025;-74
2022/10/09 07:29:59;;;;;;;9.10;5.53;;;16.00;99.90;;;;;;5025739;28;20128;-74
2022/10/09 07:32:24;;;;;;;10.25;4.72;;;16.00;99.90;;;;;;5025508;28;20112;-75
2022/10/09 07:34:50;;;;;;;7.57;5.05;;;16.00;99.90;;;;;;5022774;28;20112;-74
2022/10/09 07:37:15;;;;;;;13.77;5.68;;;16.00;99.90;;;;;;5022717;28;20108;-75
2022/10/09 07:39:41;;;;;;;7.40;4.72;;;16.10;99.90;;;;;;5021202;28;20033;-75
2022/10/09 07:42:07;;;;;;;7.53;4.15;;;16.10;99.90;;;;;;5028827;28;20027;-74
2022/10/09 07:44:33;;;;;;;6.95;4.32;;;16.20;99.90;;;;;;5024951;28;20597;-74
2022/10/09 07:46:58;;;;;;;6.50;4.05;;;16.20;99.90;;;;;;5024372;28;20029;-74
2022/10/09 07:49:24;;;;;;;9.10;4.55;;;16.30;99.90;;;;;;5028503;28;20030;-74
2022/10/09 07:51:50;;;;;;;10.07;4.85;;;16.40;99.90;;;;;;5025272;28;20053;-74
2022/10/09 07:54:15;;;;;;;10.73;5.15;;;16.30;99.90;;;;;;5024084;28;20036;-74
2022/10/09 07:56:41;;;;;;;7.28;4.78;;;16.20;99.90;;;;;;5024300;28;20017;-74
2022/10/09 07:59:11;;;;;;;7.88;4.45;;;16.20;99.90;;;;;;5031663;28;20065;-74
2022/10/09 08:01:38;;;;;;;9.27;4.85;;;16.10;99.90;;;;;;5031463;28;20037;-74
2022/10/09 08:04:04;;;;;;;8.63;4.85;;;16.20;99.90;;;;;;5025036;28;20027;-74
2022/10/09 08:06:30;;;;;;;7.72;5.03;;;16.20;99.90;;;;;;5023954;28;20357;-74
2022/10/09 08:08:59;;;;;;;9.23;5.50;;;16.20;99.90;;;;;;5023887;28;20059;-74
2022/10/09 08:11:27;;;;;;;9.15;5.43;;;16.20;99.90;;;;;;5024290;28;20068;-74
2022/10/09 08:13:53;;;;;;;7.50;4.63;;;16.20;99.90;;;;;;5031274;28;20061;-74
2022/10/09 08:16:21;;;;;;;7.63;4.82;;;16.20;99.90;;;;;;5023096;28;20072;-74
2022/10/09 08:18:47;;;;;;;10.00;5.47;;;16.40;99.90;;;;;;5024052;28;20111;-74
2022/10/09 08:21:15;;;;;;;8.63;4.90;;;16.50;99.90;;;;;;5030955;28;20427;-74
2022/10/09 08:23:41;;;;;;;10.43;5.57;;;16.60;99.90;;;;;;5029211;28;20018;-74
2022/10/09 08:26:16;;;;;;;6.63;4.40;;;16.60;99.90;;;;;;5024088;28;20064;-74
2022/10/09 08:28:42;;;;;;;12.75;6.38;;;16.40;99.90;;;;;;5025696;28;20041;-74
2022/10/09 08:31:12;;;;;;;9.65;5.05;;;16.40;99.90;;;;;;5024425;28;20112;-74
2022/10/09 08:33:37;;;;;;;10.18;5.80;;;16.40;99.90;;;;;;5029961;28;20096;-74
2022/10/09 08:36:08;;;;;;;9.27;5.57;;;16.50;99.90;;;;;;5023947;28;20037;-74
2022/10/09 08:38:35;;;;;;;7.60;5.15;;;16.50;99.90;;;;;;5025391;28;20037;-74
2022/10/09 08:41:27;;;;;;;9.15;5.78;;;16.50;99.90;;;;;;5023439;28;20044;-74
2022/10/09 08:44:08;;;;;;;9.60;5.80;;;16.50;99.90;;;;;;5023933;28;20084;-74
2022/10/09 08:46:49;;;;;;;8.07;5.43;;;16.50;99.90;;;;;;5023634;28;20047;-74
2022/10/09 08:49:43;;;;;;;7.90;5.60;;;16.50;99.90;;;;;;5025487;28;20581;-74
2022/10/09 08:52:47;;;;;;;9.48;5.20;;;16.50;99.90;;;;;;5036814;28;20053;-75
2022/10/09 08:55:16;;;;;;;11.10;6.53;;;16.60;99.90;;;;;;5024278;28;20479;-75
2022/10/09 08:57:45;;;;;;;9.52;6.18;;;16.50;99.90;;;;;;5025751;28;20033;-75
2022/10/09 09:00:54;;;;;;;9.57;6.13;;;16.60;99.90;;;;;;5026376;28;20046;-75
2022/10/09 09:03:38;;;;;;;8.63;5.65;;;16.60;99.90;;;;;;5027528;28;20512;-75
2022/10/09 09:06:13;;;;;;;8.98;5.63;;;16.70;99.90;;;;;;5024479;28;20025;-75
2022/10/09 09:08:52;;;;;;;;;;;16.80;99.90;;;;;;5028075;28;20609;-75
2022/10/09 09:11:29;;;;;;;9.32;5.93;;;16.80;99.90;;;;;;5030675;28;20004;-75
2022/10/09 09:14:07;;;;;;;10.27;6.10;;;16.90;99.90;;;;;;5024781;28;20041;-75
2022/10/09 09:16:52;;;;;;;9.30;5.18;;;17.00;99.90;;;;;;5022827;28;20416;-75
2022/10/09 09:19:31;;;;;;;10.48;5.68;;;17.00;99.90;;;;;;5025505;28;21499;-75
2022/10/09 09:21:57;;;;;;;9.43;5.03;;;17.10;99.90;;;;;;5024728;28;20021;-75
2022/10/09 09:24:35;;;;;;;9.95;5.80;;;17.20;99.90;;;;;;5026994;28;20021;-75
2022/10/09 09:27:08;;;;;;;11.80;6.10;;;17.20;99.90;;;;;;5024016;28;20526;-75
2022/10/09 09:29:58;;;;;;;12.23;6.03;;;17.30;99.90;;;;;;5023501;28;20512;-75
2022/10/09 09:32:26;;;;;;;11.55;5.60;;;17.30;99.90;;;;;;5022848;28;20045;-75
2022/10/09 09:35:01;;;;;;;16.17;6.00;;;17.20;99.90;;;;;;5022600;28;20506;-74
2022/10/09 09:37:26;;;;;;;11.02;6.25;;;17.20;99.90;;;;;;5027024;28;20030;-75
2022/10/09 09:39:52;;;;;;;10.00;5.93;;;17.20;99.90;;;;;;5029577;28;20064;-75
2022/10/09 09:42:19;;;;;;;8.45;5.45;;;17.20;99.90;;;;;;5022799;28;20391;-75
2022/10/09 09:44:54;;;;;;;8.48;5.10;;;17.20;99.90;;;;;;5025080;28;20407;-75
2022/10/09 09:47:33;;;;;;;7.15;4.30;;;17.20;99.90;;;;;;5027050;28;20029;-75
2022/10/09 09:50:01;;;;;;;7.68;4.75;;;17.10;99.90;;;;;;5026408;28;20057;-75
2022/10/09 09:52:30;;;;;;;6.25;3.95;;;17.20;99.90;;;;;;5035072;28;20098;-75
2022/10/09 09:54:57;;;;;;;8.02;4.57;;;17.30;99.90;;;;;;5034814;28;20036;-75
2022/10/09 09:57:39;;;;;;;10.82;4.43;;;17.30;99.90;;;;;;5026851;28;20029;-75
2022/10/09 10:00:26;;;;;;;7.70;4.60;;;17.30;99.90;;;;;;5028814;28;20426;-75
2022/10/09 10:03:08;;;;;;;6.88;3.75;;;17.30;99.90;;;;;;5031549;28;20043;-75
2022/10/09 10:05:36;;;;;;;7.53;4.93;;;17.40;99.90;;;;;;5027868;28;20041;-75
2022/10/09 10:08:24;;;;;;;7.93;4.88;;;17.30;99.90;;;;;;5028510;28;20063;-75
2022/10/09 10:10:52;;;;;;;6.35;4.20;;;17.20;99.90;;;;;;5029717;28;20026;-75
2022/10/09 10:13:21;;;;;;;7.22;4.05;;;17.10;99.90;;;;;;5025322;28;20046;-75
2022/10/09 10:15:55;;;;;;;7.70;4.10;;;17.30;99.90;;;;;;5028127;28;20029;-75
2022/10/09 10:18:23;;;;;;;7.05;4.70;;;17.40;99.90;;;;;;5032710;28;20060;-75
2022/10/09 10:20:53;;;;;;;10.90;4.20;;;17.30;99.90;;;;;;5025306;28;20041;-75
2022/10/09 10:23:22;;;;;;;9.65;3.97;;;17.40;99.90;;;;;;5029561;28;20436;-75
2022/10/09 10:25:49;;;;;;;8.65;4.28;;;17.40;99.90;;;;;;5026505;28;20030;-75
2022/10/09 10:28:19;;;;;;;8.95;4.53;;;17.30;99.90;;;;;;5026613;28;20030;-75
2022/10/09 10:30:46;;;;;;;7.13;4.47;;;17.50;99.90;;;;;;5027220;28;20369;-74
2022/10/09 10:33:23;;;;;;;8.50;5.72;;;17.60;99.90;;;;;;5029924;28;20035;-74
2022/10/09 10:35:51;;;;;;;10.43;5.25;;;17.70;99.90;;;;;;5023033;28;20074;-74
2022/10/09 10:38:40;;;;;;;8.52;5.00;;;17.80;99.90;;;;;;5023123;28;20072;-74
2022/10/09 10:41:21;;;;;;;11.25;5.15;;;17.90;99.90;;;;;;5025398;28;20037;-74
2022/10/09 10:44:17;;;;;;;9.73;4.97;;;17.90;99.90;;;;;;5024834;28;20525;-74
2022/10/09 10:47:05;;;;;;;11.30;4.90;;;17.80;99.90;;;;;;5019299;28;20048;-74
2022/10/09 10:49:31;;;;;;;7.72;3.97;;;17.70;99.90;;;;;;5025235;28;20552;-74
2022/10/09 10:52:22;;;;;;;8.57;4.40;;;17.80;99.90;;;;;;5025990;28;20033;-74
2022/10/09 10:54:58;;;;;;;8.57;4.13;;;17.80;99.90;;;;;;5024924;28;20578;-74
2022/10/09 10:57:54;;;;;;;10.60;4.30;;;18.00;99.90;;;;;;5025946;28;20029;-74
2022/10/09 11:00:20;;;;;;;7.45;4.43;;;18.10;99.90;;;;;;5030127;28;20041;-74
2022/10/09 11:03:05;;;;;;;10.73;4.07;;;18.30;99.90;;;;;;5027530;28;20026;-73
2022/10/09 11:05:43;;;;;;;10.77;4.63;;;18.40;99.90;;;;;;5022033;28;20063;-76
2022/10/09 11:08:46;;;;;;;8.15;3.47;;;18.40;99.90;;;;;;5020772;28;20387;-76
2022/10/09 11:11:26;;;;;;;5.70;3.25;;;18.50;99.90;;;;;;5028645;28;20112;-74
2022/10/09 11:13:52;;;;;;;7.78;4.15;;;18.50;99.90;;;;;;5027588;28;20518;-76
2022/10/09 11:16:39;;;;;;;8.88;4.20;;;18.50;99.90;;;;;;5031695;28;20039;-76
2022/10/09 11:19:37;;;;;;;6.97;4.28;;;18.30;99.90;;;;;;5035996;28;20459;-76
2022/10/09 11:22:30;;;;;;;6.22;3.28;;;18.30;99.90;;;;;;5033378;28;20108;-75
2022/10/09 11:25:10;;;;;;;6.85;3.10;;;18.30;99.90;;;;;;5029569;28;20380;-75
2022/10/09 11:27:51;;;;;;;8.30;2.88;;;18.40;99.90;;;;;;5025195;28;20040;-75
2022/10/09 11:30:17;;;;;;;6.97;3.58;;;18.30;99.90;;;;;;5031719;28;20033;-76
2022/10/09 11:32:49;;;;;;;6.18;3.38;;;18.30;99.90;;;;;;5027203;28;20381;-76
2022/10/09 11:35:20;;;;;;;8.98;4.30;;;18.30;99.90;;;;;;5022559;28;20388;-77
2022/10/09 11:37:55;;;;;;;9.02;3.17;;;18.40;99.90;;;;;;5027513;28;20172;-77
2022/10/09 11:40:25;;;;;;;5.97;3.28;;;18.50;99.90;;;;;;5023038;28;20117;-76
2022/10/09 11:43:19;;;;;;;6.90;2.88;;;18.50;99.90;;;;;;5028125;28;20497;-77
2022/10/09 11:46:31;;;;;;;6.90;3.53;;;18.40;99.90;;;;;;5022915;28;20044;-76
2022/10/09 11:49:09;;;;;;;8.90;3.17;;;18.50;99.90;;;;;;4994323;28;20041;-75
2022/10/09 11:51:43;;;;;;;6.35;3.28;;;18.50;99.90;;;;;;4993486;28;20136;-77
2022/10/09 11:54:20;;;;;;;5.68;2.92;;;18.70;99.90;;;;;;5029892;28;20033;-76
2022/10/09 11:56:53;;;;;;;4.93;2.83;;;18.60;99.90;;;;;;5032232;28;20485;-77
2022/10/09 11:59:30;;;;;;;9.48;3.05;;;18.60;99.90;;;;;;5035727;28;20045;-76
2022/10/09 12:01:58;;;;;;;6.47;2.88;;;18.70;99.90;;;;;;5046132;28;20037;-75
2022/10/09 12:04:33;;;;;;;7.15;2.90;;;18.70;99.90;;;;;;5040067;28;20037;-77
2022/10/09 12:07:01;;;;;;;5.28;3.05;;;18.70;99.90;;;;;;5024326;28;20025;-78
2022/10/09 12:09:47;;;;;;;5.18;2.65;;;18.70;99.90;;;;;;5025543;28;20193;-76
2022/10/09 12:12:15;;;;;;;7.10;2.85;;;18.70;99.90;;;;;;5023961;28;20080;-77
2022/10/09 12:14:43;;;;;;;6.20;3.03;;;18.70;99.90;;;;;;5024987;28;20114;-78
2022/10/09 12:17:21;;;;;;;6.25;3.10;;;18.70;99.90;;;;;;5020942;28;20044;-83
2022/10/09 12:19:53;;;;;;;5.80;2.78;;;18.80;99.90;;;;;;5027392;28;20037;-84
2022/10/09 12:22:26;;;;;;;11.52;3.13;;;18.90;99.90;;;;;;5022253;28;20104;-83
2022/10/09 12:24:56;;;;;;;5.15;2.70;;;18.90;99.90;;;;;;5025990;28;20071;-78
2022/10/09 12:27:35;;;;;;;5.32;2.58;;;18.90;99.90;;;;;;5025267;28;20119;-77
2022/10/09 12:30:07;;;;;;;9.93;2.90;;;19.00;99.90;;;;;;5022776;28;20495;-77
2022/10/09 12:32:37;;;;;;;5.93;2.70;;;19.10;99.90;;;;;;5021465;28;20076;-78
2022/10/09 12:35:36;;;;;;;7.00;2.75;;;19.10;99.90;;;;;;5026243;28;20033;-75
2022/10/09 12:38:13;;;;;;;5.47;2.58;;;19.10;99.90;;;;;;5026549;28;20029;-78
2022/10/09 12:40:45;;;;;;;6.47;2.47;;;19.10;99.90;;;;;;5022630;28;20133;-77
2022/10/09 12:43:17;;;;;;;6.25;2.78;;;19.30;99.90;;;;;;5029847;28;20068;-77
2022/10/09 12:45:47;;;;;;;6.82;3.10;;;19.30;99.90;;;;;;5025887;28;20095;-81
2022/10/09 12:48:17;;;;;;;5.53;2.85;;;19.30;99.90;;;;;;5043308;28;20654;-77
2022/10/09 12:50:43;;;;;;;4.57;2.85;;;19.20;99.90;;;;;;5030366;28;20403;-77
2022/10/09 12:53:13;;;;;;;5.13;2.60;;;19.10;99.90;;;;;;5028565;28;20029;-79
2022/10/09 12:55:45;;;;;;;6.40;2.60;;;19.00;99.90;;;;;;5027200;28;20044;-77
2022/10/09 12:58:17;;;;;;;5.47;2.72;;;19.00;99.90;;;;;;5034479;28;20025;-76